Raleigh, NC (27676)

2:57 PM EST on January 27, 2015 (GMT -0500)
Five Points - The Circle | Change Station
CLOSE
Current Station
Personal Weather Station
Location: Raleigh, NC
Elevation: 328 ft
Nearby Weather Stations

Elev 328 ft 35.81 °N, 78.65 °W | Updated 28 seconds ago

Mostly Cloudy
Mostly Cloudy
42.4 °F
Feels Like 42 °F
N
1.8
Wind Variable Wind from NW
Gusts 2.5 mph

Today
High -- | Low -- °F
--% Chance of Precip.
Yesterday
High -- | Low -- °F
Precip. -- in
7:18 AM 5:36 PM
First Quarter, 57% visible
Pressure 29.81 in
Visibility 10.0 miles
Clouds Few 6000 ft
Scattered Clouds 25000 ft
Windchill 42 °F
Dew Point 14 °F
Humidity 31%
Rainfall 0.00 in
Snow Depth Not available.
UV 1.0 out of 12
Pollen 1.10 out of 12
Air Quality Not available.
Flu Activity Not available.
METAR KRDU 271951Z 33008KT 290V360 10SM FEW060 SCT250 07/M09 A2980 RMK AO2 SLP092 T00671089

More Conditions Fewer Conditions

Pressure 29.81 in
Visibility 10.0 miles
Clouds Few 6000 ft
Scattered Clouds 25000 ft
Windchill 42 °F
Dew Point 14 °F
Humidity 31%
Rainfall 0.00 in
Snow Depth Not available.
UV 1.0 out of 12
Pollen 1.10 out of 12
Air Quality Not available.
Flu Activity Not available.
METAR KRDU 271951Z 33008KT 290V360 10SM FEW060 SCT250 07/M09 A2980 RMK AO2 SLP092 T00671089

More Conditions Fewer Conditions

10-Day Weather Forecast

Almanac

Astronomy

Jan. 27, 2015 Rise Set
Actual Time
Civil Twilight
Nautical Twilight
Astronomical Twilight
Moon
Length of Visible Light
Length of Day
Tomorrow will be .
, % of the Moon is Illuminated

Today's Extremes

State Highs State Lows

Community

WunderPhotos

Upload Photos

1,790,837 photos uploaded!

WunderBlogs® & News

Nearby

Air Quality

  Air Quality AQ Index Pollutant
Not available.

Snow Depth

Station Depth Elevation

Earthquake Activity

City Distance Mag. Time & Date
Minimum magnitude displayed is 2.5.

Coastal Water Temperatures

Place Temperature

Nearby Weather Stations